sensor_id;sensor_type;location;lat;lon;timestamp;P1;durP1;ratioP1;P2;durP2;ratioP2
50301;SDS011;36550;50.472;19.744;2024-01-30T00:02:09;57.20;;;23.30;;
50301;SDS011;36550;50.472;19.744;2024-01-30T00:04:53;60.40;;;24.40;;
50301;SDS011;36550;50.472;19.744;2024-01-30T00:07:37;60.40;;;24.20;;
50301;SDS011;36550;50.472;19.744;2024-01-30T00:10:22;60.30;;;24.50;;
50301;SDS011;36550;50.472;19.744;2024-01-30T00:13:06;62.20;;;24.60;;
50301;SDS011;36550;50.472;19.744;2024-01-30T00:15:50;62.50;;;24.30;;
50301;SDS011;36550;50.472;19.744;2024-01-30T00:18:35;57.20;;;22.90;;
50301;SDS011;36550;50.472;19.744;2024-01-30T00:21:20;54.00;;;21.50;;
50301;SDS011;36550;50.472;19.744;2024-01-30T00:24:05;55.20;;;22.60;;
50301;SDS011;36550;50.472;19.744;2024-01-30T00:26:49;53.20;;;22.30;;
50301;SDS011;36550;50.472;19.744;2024-01-30T00:29:33;51.80;;;21.70;;
50301;SDS011;36550;50.472;19.744;2024-01-30T00:32:17;44.00;;;19.40;;
50301;SDS011;36550;50.472;19.744;2024-01-30T00:35:03;53.60;;;21.70;;
50301;SDS011;36550;50.472;19.744;2024-01-30T00:37:49;55.10;;;22.50;;
50301;SDS011;36550;50.472;19.744;2024-01-30T00:40:34;54.70;;;23.30;;
50301;SDS011;36550;50.472;19.744;2024-01-30T00:43:18;54.50;;;22.40;;
50301;SDS011;36550;50.472;19.744;2024-01-30T00:46:02;57.70;;;22.20;;
50301;SDS011;36550;50.472;19.744;2024-01-30T00:48:47;57.70;;;23.60;;
50301;SDS011;36550;50.472;19.744;2024-01-30T00:51:31;56.20;;;21.60;;
50301;SDS011;36550;50.472;19.744;2024-01-30T00:54:16;54.60;;;23.00;;
50301;SDS011;36550;50.472;19.744;2024-01-30T00:57:00;53.70;;;23.50;;
50301;SDS011;36550;50.472;19.744;2024-01-30T00:59:44;48.60;;;21.40;;
50301;SDS011;36550;50.472;19.744;2024-01-30T01:02:28;56.20;;;24.30;;
50301;SDS011;36550;50.472;19.744;2024-01-30T01:05:13;58.00;;;23.40;;
50301;SDS011;36550;50.472;19.744;2024-01-30T01:07:57;62.70;;;25.90;;
50301;SDS011;36550;50.472;19.744;2024-01-30T01:10:41;58.90;;;26.10;;
50301;SDS011;36550;50.472;19.744;2024-01-30T01:13:25;57.50;;;25.40;;
50301;SDS011;36550;50.472;19.744;2024-01-30T01:16:10;55.60;;;25.30;;
50301;SDS011;36550;50.472;19.744;2024-01-30T01:18:54;66.80;;;27.00;;
50301;SDS011;36550;50.472;19.744;2024-01-30T01:21:39;57.30;;;25.60;;
50301;SDS011;36550;50.472;19.744;2024-01-30T01:24:23;66.10;;;28.30;;
50301;SDS011;36550;50.472;19.744;2024-01-30T01:27:08;64.80;;;27.90;;
50301;SDS011;36550;50.472;19.744;2024-01-30T01:29:52;57.20;;;26.20;;
50301;SDS011;36550;50.472;19.744;2024-01-30T01:32:37;60.60;;;26.90;;
50301;SDS011;36550;50.472;19.744;2024-01-30T01:35:22;62.00;;;25.10;;
50301;SDS011;36550;50.472;19.744;2024-01-30T01:38:10;62.40;;;27.40;;
50301;SDS011;36550;50.472;19.744;2024-01-30T01:40:54;64.00;;;26.20;;
50301;SDS011;36550;50.472;19.744;2024-01-30T01:43:38;59.40;;;25.80;;
50301;SDS011;36550;50.472;19.744;2024-01-30T01:46:23;62.60;;;26.10;;
50301;SDS011;36550;50.472;19.744;2024-01-30T01:49:08;63.30;;;25.10;;
50301;SDS011;36550;50.472;19.744;2024-01-30T01:51:54;64.30;;;28.10;;
50301;SDS011;36550;50.472;19.744;2024-01-30T01:54:43;62.00;;;28.20;;
50301;SDS011;36550;50.472;19.744;2024-01-30T01:57:27;72.00;;;30.10;;
50301;SDS011;36550;50.472;19.744;2024-01-30T02:00:12;62.70;;;29.90;;
50301;SDS011;36550;50.472;19.744;2024-01-30T02:02:57;64.60;;;28.80;;
50301;SDS011;36550;50.472;19.744;2024-01-30T02:05:43;62.90;;;27.30;;
50301;SDS011;36550;50.472;19.744;2024-01-30T02:08:28;59.90;;;26.10;;
50301;SDS011;36550;50.472;19.744;2024-01-30T02:11:13;65.00;;;27.00;;
50301;SDS011;36550;50.472;19.744;2024-01-30T02:13:57;62.30;;;26.00;;
50301;SDS011;36550;50.472;19.744;2024-01-30T02:16:47;65.30;;;26.90;;
50301;SDS011;36550;50.472;19.744;2024-01-30T02:19:31;66.60;;;27.80;;
50301;SDS011;36550;50.472;19.744;2024-01-30T02:22:15;68.40;;;28.40;;
50301;SDS011;36550;50.472;19.744;2024-01-30T02:25:00;63.10;;;27.70;;
50301;SDS011;36550;50.472;19.744;2024-01-30T02:27:44;65.50;;;27.50;;
50301;SDS011;36550;50.472;19.744;2024-01-30T02:30:28;63.20;;;25.80;;
50301;SDS011;36550;50.472;19.744;2024-01-30T02:33:13;58.60;;;25.30;;
50301;SDS011;36550;50.472;19.744;2024-01-30T02:35:57;56.20;;;22.00;;
50301;SDS011;36550;50.472;19.744;2024-01-30T02:38:42;47.40;;;21.80;;
50301;SDS011;36550;50.472;19.744;2024-01-30T02:41:26;56.00;;;22.50;;
50301;SDS011;36550;50.472;19.744;2024-01-30T02:44:10;53.40;;;22.50;;
50301;SDS011;36550;50.472;19.744;2024-01-30T02:46:54;51.00;;;21.60;;
50301;SDS011;36550;50.472;19.744;2024-01-30T02:49:39;49.50;;;20.00;;
50301;SDS011;36550;50.472;19.744;2024-01-30T02:52:23;56.00;;;22.60;;
50301;SDS011;36550;50.472;19.744;2024-01-30T02:55:08;48.10;;;21.20;;
50301;SDS011;36550;50.472;19.744;2024-01-30T02:57:52;52.50;;;21.00;;
50301;SDS011;36550;50.472;19.744;2024-01-30T03:00:36;53.40;;;22.40;;
50301;SDS011;36550;50.472;19.744;2024-01-30T03:03:20;47.10;;;19.70;;
50301;SDS011;36550;50.472;19.744;2024-01-30T03:06:05;45.60;;;18.50;;
50301;SDS011;36550;50.472;19.744;2024-01-30T03:08:49;41.70;;;16.00;;
50301;SDS011;36550;50.472;19.744;2024-01-30T03:11:33;43.00;;;17.70;;
50301;SDS011;36550;50.472;19.744;2024-01-30T03:14:17;54.00;;;21.80;;
50301;SDS011;36550;50.472;19.744;2024-01-30T03:17:02;52.10;;;22.10;;
50301;SDS011;36550;50.472;19.744;2024-01-30T03:19:46;44.40;;;20.20;;
50301;SDS011;36550;50.472;19.744;2024-01-30T03:22:30;51.00;;;20.70;;
50301;SDS011;36550;50.472;19.744;2024-01-30T03:25:14;49.60;;;19.80;;
50301;SDS011;36550;50.472;19.744;2024-01-30T03:27:58;51.50;;;21.50;;
50301;SDS011;36550;50.472;19.744;2024-01-30T03:30:43;56.90;;;21.50;;
50301;SDS011;36550;50.472;19.744;2024-01-30T03:33:27;59.80;;;24.40;;
50301;SDS011;36550;50.472;19.744;2024-01-30T03:36:12;61.60;;;23.50;;
50301;SDS011;36550;50.472;19.744;2024-01-30T03:38:56;57.70;;;23.50;;
50301;SDS011;36550;50.472;19.744;2024-01-30T03:41:43;49.30;;;22.10;;
50301;SDS011;36550;50.472;19.744;2024-01-30T03:44:28;54.40;;;20.50;;
50301;SDS011;36550;50.472;19.744;2024-01-30T03:47:12;56.40;;;21.00;;
50301;SDS011;36550;50.472;19.744;2024-01-30T03:49:56;48.80;;;19.90;;
50301;SDS011;36550;50.472;19.744;2024-01-30T03:52:41;48.40;;;19.30;;
50301;SDS011;36550;50.472;19.744;2024-01-30T03:55:25;45.50;;;19.70;;
50301;SDS011;36550;50.472;19.744;2024-01-30T03:58:09;42.00;;;17.90;;
50301;SDS011;36550;50.472;19.744;2024-01-30T04:00:53;45.30;;;19.80;;
50301;SDS011;36550;50.472;19.744;2024-01-30T04:03:37;47.80;;;20.80;;
50301;SDS011;36550;50.472;19.744;2024-01-30T04:06:22;51.80;;;21.30;;
50301;SDS011;36550;50.472;19.744;2024-01-30T04:09:06;56.70;;;19.90;;
50301;SDS011;36550;50.472;19.744;2024-01-30T04:11:50;57.50;;;21.70;;
50301;SDS011;36550;50.472;19.744;2024-01-30T04:14:34;46.90;;;19.80;;
50301;SDS011;36550;50.472;19.744;2024-01-30T04:17:19;44.20;;;17.50;;
50301;SDS011;36550;50.472;19.744;2024-01-30T04:20:03;45.50;;;18.30;;
50301;SDS011;36550;50.472;19.744;2024-01-30T04:22:49;40.70;;;15.70;;
50301;SDS011;36550;50.472;19.744;2024-01-30T04:25:33;42.40;;;16.70;;
50301;SDS011;36550;50.472;19.744;2024-01-30T04:28:18;35.30;;;16.30;;
50301;SDS011;36550;50.472;19.744;2024-01-30T04:31:02;40.60;;;16.50;;
50301;SDS011;36550;50.472;19.744;2024-01-30T04:33:46;43.00;;;17.40;;
50301;SDS011;36550;50.472;19.744;2024-01-30T04:36:30;45.90;;;17.30;;
50301;SDS011;36550;50.472;19.744;2024-01-30T04:39:14;45.40;;;16.90;;
50301;SDS011;36550;50.472;19.744;2024-01-30T04:41:59;44.80;;;16.70;;
50301;SDS011;36550;50.472;19.744;2024-01-30T04:44:43;40.00;;;14.60;;
50301;SDS011;36550;50.472;19.744;2024-01-30T04:47:28;41.80;;;16.20;;
50301;SDS011;36550;50.472;19.744;2024-01-30T04:50:11;37.40;;;15.00;;
50301;SDS011;36550;50.472;19.744;2024-01-30T04:52:55;39.10;;;14.80;;
50301;SDS011;36550;50.472;19.744;2024-01-30T04:55:40;34.40;;;14.10;;
50301;SDS011;36550;50.472;19.744;2024-01-30T04:58:24;32.60;;;13.80;;
50301;SDS011;36550;50.472;19.744;2024-01-30T05:01:09;38.20;;;14.90;;
50301;SDS011;36550;50.472;19.744;2024-01-30T05:03:53;37.80;;;15.60;;
50301;SDS011;36550;50.472;19.744;2024-01-30T05:06:37;37.80;;;15.30;;
50301;SDS011;36550;50.472;19.744;2024-01-30T05:09:21;43.60;;;17.60;;
50301;SDS011;36550;50.472;19.744;2024-01-30T05:12:06;50.10;;;19.80;;
50301;SDS011;36550;50.472;19.744;2024-01-30T05:14:51;48.10;;;19.70;;
50301;SDS011;36550;50.472;19.744;2024-01-30T05:17:35;43.10;;;18.10;;
50301;SDS011;36550;50.472;19.744;2024-01-30T05:20:19;42.00;;;18.00;;
50301;SDS011;36550;50.472;19.744;2024-01-30T05:23:04;43.80;;;17.60;;
50301;SDS011;36550;50.472;19.744;2024-01-30T05:25:48;44.70;;;18.20;;
50301;SDS011;36550;50.472;19.744;2024-01-30T05:28:32;52.10;;;18.60;;
50301;SDS011;36550;50.472;19.744;2024-01-30T05:31:16;44.00;;;17.80;;
50301;SDS011;36550;50.472;19.744;2024-01-30T05:34:01;49.90;;;19.00;;
50301;SDS011;36550;50.472;19.744;2024-01-30T05:36:45;42.80;;;17.60;;
50301;SDS011;36550;50.472;19.744;2024-01-30T05:39:29;50.80;;;19.90;;
50301;SDS011;36550;50.472;19.744;2024-01-30T05:42:16;53.70;;;20.20;;
50301;SDS011;36550;50.472;19.744;2024-01-30T05:45:00;46.40;;;19.60;;
50301;SDS011;36550;50.472;19.744;2024-01-30T05:47:45;56.10;;;22.80;;
50301;SDS011;36550;50.472;19.744;2024-01-30T05:50:29;66.00;;;24.50;;
50301;SDS011;36550;50.472;19.744;2024-01-30T05:53:13;83.10;;;30.20;;
50301;SDS011;36550;50.472;19.744;2024-01-30T05:55:57;65.10;;;26.20;;
50301;SDS011;36550;50.472;19.744;2024-01-30T05:58:41;61.10;;;23.00;;
50301;SDS011;36550;50.472;19.744;2024-01-30T06:01:26;49.30;;;21.20;;
50301;SDS011;36550;50.472;19.744;2024-01-30T06:04:10;50.20;;;20.30;;
50301;SDS011;36550;50.472;19.744;2024-01-30T06:06:54;41.80;;;17.10;;
50301;SDS011;36550;50.472;19.744;2024-01-30T06:09:39;41.10;;;17.20;;
50301;SDS011;36550;50.472;19.744;2024-01-30T06:12:24;39.10;;;16.20;;
50301;SDS011;36550;50.472;19.744;2024-01-30T06:15:09;55.10;;;19.70;;
50301;SDS011;36550;50.472;19.744;2024-01-30T06:17:56;51.30;;;21.90;;
50301;SDS011;36550;50.472;19.744;2024-01-30T06:20:40;59.00;;;24.80;;
50301;SDS011;36550;50.472;19.744;2024-01-30T06:23:24;65.90;;;25.40;;
50301;SDS011;36550;50.472;19.744;2024-01-30T06:26:09;64.30;;;24.40;;
50301;SDS011;36550;50.472;19.744;2024-01-30T06:28:54;60.40;;;24.10;;
50301;SDS011;36550;50.472;19.744;2024-01-30T06:31:41;56.10;;;23.50;;
50301;SDS011;36550;50.472;19.744;2024-01-30T06:34:25;52.30;;;21.20;;
50301;SDS011;36550;50.472;19.744;2024-01-30T06:37:09;57.30;;;22.40;;
50301;SDS011;36550;50.472;19.744;2024-01-30T06:39:54;58.10;;;21.50;;
50301;SDS011;36550;50.472;19.744;2024-01-30T06:42:38;55.60;;;23.10;;
50301;SDS011;36550;50.472;19.744;2024-01-30T06:45:22;88.80;;;26.10;;
50301;SDS011;36550;50.472;19.744;2024-01-30T06:48:07;88.90;;;27.90;;
50301;SDS011;36550;50.472;19.744;2024-01-30T06:50:55;88.40;;;27.10;;
50301;SDS011;36550;50.472;19.744;2024-01-30T06:53:42;98.00;;;29.00;;
50301;SDS011;36550;50.472;19.744;2024-01-30T06:56:27;99.30;;;33.50;;
50301;SDS011;36550;50.472;19.744;2024-01-30T06:59:11;84.30;;;30.60;;
50301;SDS011;36550;50.472;19.744;2024-01-30T07:01:56;95.50;;;32.10;;
50301;SDS011;36550;50.472;19.744;2024-01-30T07:04:40;91.50;;;30.70;;
50301;SDS011;36550;50.472;19.744;2024-01-30T07:07:25;85.80;;;31.60;;
50301;SDS011;36550;50.472;19.744;2024-01-30T07:10:10;75.40;;;28.90;;
50301;SDS011;36550;50.472;19.744;2024-01-30T07:12:54;64.40;;;22.60;;
50301;SDS011;36550;50.472;19.744;2024-01-30T07:15:39;68.70;;;23.90;;
50301;SDS011;36550;50.472;19.744;2024-01-30T07:18:23;55.30;;;22.20;;
50301;SDS011;36550;50.472;19.744;2024-01-30T07:21:07;58.30;;;22.00;;
50301;SDS011;36550;50.472;19.744;2024-01-30T07:23:51;55.90;;;20.80;;
50301;SDS011;36550;50.472;19.744;2024-01-30T07:26:35;50.70;;;19.90;;
50301;SDS011;36550;50.472;19.744;2024-01-30T07:29:19;49.40;;;19.80;;
50301;SDS011;36550;50.472;19.744;2024-01-30T07:32:03;56.00;;;19.40;;
50301;SDS011;36550;50.472;19.744;2024-01-30T07:34:47;59.80;;;21.40;;
50301;SDS011;36550;50.472;19.744;2024-01-30T07:37:31;63.30;;;23.70;;
50301;SDS011;36550;50.472;19.744;2024-01-30T07:40:15;59.00;;;23.10;;
50301;SDS011;36550;50.472;19.744;2024-01-30T07:43:00;58.60;;;22.40;;
50301;SDS011;36550;50.472;19.744;2024-01-30T07:45:44;51.80;;;23.00;;
50301;SDS011;36550;50.472;19.744;2024-01-30T07:48:28;57.60;;;21.10;;
50301;SDS011;36550;50.472;19.744;2024-01-30T07:51:12;52.60;;;20.50;;
50301;SDS011;36550;50.472;19.744;2024-01-30T07:53:56;49.50;;;19.20;;
50301;SDS011;36550;50.472;19.744;2024-01-30T07:56:41;45.70;;;18.10;;
50301;SDS011;36550;50.472;19.744;2024-01-30T07:59:25;50.70;;;19.10;;
50301;SDS011;36550;50.472;19.744;2024-01-30T08:02:10;53.40;;;20.00;;
50301;SDS011;36550;50.472;19.744;2024-01-30T08:04:56;47.70;;;20.50;;
50301;SDS011;36550;50.472;19.744;2024-01-30T08:07:43;47.20;;;19.10;;
50301;SDS011;36550;50.472;19.744;2024-01-30T08:10:28;40.20;;;17.60;;
50301;SDS011;36550;50.472;19.744;2024-01-30T08:13:12;43.70;;;15.90;;
50301;SDS011;36550;50.472;19.744;2024-01-30T08:15:57;43.50;;;17.50;;
50301;SDS011;36550;50.472;19.744;2024-01-30T08:18:41;35.00;;;15.90;;
50301;SDS011;36550;50.472;19.744;2024-01-30T08:21:25;36.50;;;15.20;;
50301;SDS011;36550;50.472;19.744;2024-01-30T08:24:09;36.80;;;15.90;;
50301;SDS011;36550;50.472;19.744;2024-01-30T08:26:53;36.60;;;14.50;;
50301;SDS011;36550;50.472;19.744;2024-01-30T08:29:37;38.30;;;16.40;;
50301;SDS011;36550;50.472;19.744;2024-01-30T08:32:22;42.90;;;19.70;;
50301;SDS011;36550;50.472;19.744;2024-01-30T08:35:07;43.40;;;16.90;;
50301;SDS011;36550;50.472;19.744;2024-01-30T08:37:52;44.50;;;17.00;;
50301;SDS011;36550;50.472;19.744;2024-01-30T08:40:38;47.30;;;16.70;;
50301;SDS011;36550;50.472;19.744;2024-01-30T08:43:22;37.60;;;17.70;;
50301;SDS011;36550;50.472;19.744;2024-01-30T08:46:06;48.10;;;19.40;;
50301;SDS011;36550;50.472;19.744;2024-01-30T08:48:51;46.80;;;19.60;;
50301;SDS011;36550;50.472;19.744;2024-01-30T08:51:35;38.70;;;17.10;;
50301;SDS011;36550;50.472;19.744;2024-01-30T08:54:19;34.00;;;15.60;;
50301;SDS011;36550;50.472;19.744;2024-01-30T08:57:04;37.80;;;15.50;;
50301;SDS011;36550;50.472;19.744;2024-01-30T08:59:48;35.70;;;15.60;;
50301;SDS011;36550;50.472;19.744;2024-01-30T09:02:33;33.40;;;14.30;;
50301;SDS011;36550;50.472;19.744;2024-01-30T09:05:18;32.70;;;14.20;;
50301;SDS011;36550;50.472;19.744;2024-01-30T09:08:02;25.90;;;12.00;;
50301;SDS011;36550;50.472;19.744;2024-01-30T09:10:46;34.60;;;13.50;;
50301;SDS011;36550;50.472;19.744;2024-01-30T09:13:31;28.10;;;11.10;;
50301;SDS011;36550;50.472;19.744;2024-01-30T09:16:15;24.20;;;11.00;;
50301;SDS011;36550;50.472;19.744;2024-01-30T09:19:00;26.30;;;10.70;;
50301;SDS011;36550;50.472;19.744;2024-01-30T09:21:44;24.90;;;10.10;;
50301;SDS011;36550;50.472;19.744;2024-01-30T09:24:29;26.30;;;9.90;;
50301;SDS011;36550;50.472;19.744;2024-01-30T09:27:13;25.60;;;10.30;;
50301;SDS011;36550;50.472;19.744;2024-01-30T09:29:57;23.90;;;9.70;;
50301;SDS011;36550;50.472;19.744;2024-01-30T09:32:41;24.60;;;10.60;;
50301;SDS011;36550;50.472;19.744;2024-01-30T09:35:25;26.60;;;11.30;;
50301;SDS011;36550;50.472;19.744;2024-01-30T09:38:09;23.30;;;10.50;;
50301;SDS011;36550;50.472;19.744;2024-01-30T09:40:54;23.90;;;10.30;;
50301;SDS011;36550;50.472;19.744;2024-01-30T09:43:41;28.70;;;11.00;;
50301;SDS011;36550;50.472;19.744;2024-01-30T09:46:32;24.00;;;10.20;;
50301;SDS011;36550;50.472;19.744;2024-01-30T09:49:18;24.40;;;11.40;;
50301;SDS011;36550;50.472;19.744;2024-01-30T09:52:05;22.70;;;10.90;;
50301;SDS011;36550;50.472;19.744;2024-01-30T09:57:36;21.50;;;9.70;;
50301;SDS011;36550;50.472;19.744;2024-01-30T10:00:20;22.40;;;10.00;;
50301;SDS011;36550;50.472;19.744;2024-01-30T10:03:10;21.50;;;9.80;;
50301;SDS011;36550;50.472;19.744;2024-01-30T10:05:54;20.00;;;9.40;;
50301;SDS011;36550;50.472;19.744;2024-01-30T10:08:39;23.30;;;10.60;;
50301;SDS011;36550;50.472;19.744;2024-01-30T10:11:23;23.00;;;10.20;;
50301;SDS011;36550;50.472;19.744;2024-01-30T10:14:08;23.70;;;9.90;;
50301;SDS011;36550;50.472;19.744;2024-01-30T10:16:52;22.70;;;10.40;;
50301;SDS011;36550;50.472;19.744;2024-01-30T10:19:37;24.00;;;10.40;;
50301;SDS011;36550;50.472;19.744;2024-01-30T10:22:22;23.10;;;10.00;;
50301;SDS011;36550;50.472;19.744;2024-01-30T10:25:07;18.00;;;9.00;;
50301;SDS011;36550;50.472;19.744;2024-01-30T10:27:54;22.40;;;10.10;;
50301;SDS011;36550;50.472;19.744;2024-01-30T10:30:39;22.80;;;10.20;;
50301;SDS011;36550;50.472;19.744;2024-01-30T10:33:23;24.60;;;10.50;;
50301;SDS011;36550;50.472;19.744;2024-01-30T10:36:07;25.80;;;10.90;;
50301;SDS011;36550;50.472;19.744;2024-01-30T10:38:52;21.10;;;10.60;;
50301;SDS011;36550;50.472;19.744;2024-01-30T10:41:42;21.10;;;9.60;;
50301;SDS011;36550;50.472;19.744;2024-01-30T10:44:27;26.00;;;11.00;;
50301;SDS011;36550;50.472;19.744;2024-01-30T10:47:18;25.60;;;10.60;;
50301;SDS011;36550;50.472;19.744;2024-01-30T10:50:09;22.20;;;10.00;;
50301;SDS011;36550;50.472;19.744;2024-01-30T10:52:54;20.60;;;9.80;;
50301;SDS011;36550;50.472;19.744;2024-01-30T10:55:39;22.90;;;9.70;;
50301;SDS011;36550;50.472;19.744;2024-01-30T10:58:25;23.20;;;10.10;;
50301;SDS011;36550;50.472;19.744;2024-01-30T11:01:10;22.90;;;10.30;;
50301;SDS011;36550;50.472;19.744;2024-01-30T11:03:55;22.00;;;9.60;;
50301;SDS011;36550;50.472;19.744;2024-01-30T11:06:43;25.00;;;10.20;;
50301;SDS011;36550;50.472;19.744;2024-01-30T11:09:28;22.40;;;9.70;;
50301;SDS011;36550;50.472;19.744;2024-01-30T11:12:13;19.90;;;9.10;;
50301;SDS011;36550;50.472;19.744;2024-01-30T11:15:04;22.10;;;10.30;;
50301;SDS011;36550;50.472;19.744;2024-01-30T11:17:53;21.30;;;10.40;;
50301;SDS011;36550;50.472;19.744;2024-01-30T11:20:37;22.10;;;10.20;;
50301;SDS011;36550;50.472;19.744;2024-01-30T11:23:23;24.70;;;11.30;;
50301;SDS011;36550;50.472;19.744;2024-01-30T11:26:10;26.10;;;10.90;;
50301;SDS011;36550;50.472;19.744;2024-01-30T11:28:55;20.40;;;9.30;;
50301;SDS011;36550;50.472;19.744;2024-01-30T11:31:39;24.20;;;10.00;;
50301;SDS011;36550;50.472;19.744;2024-01-30T11:34:23;20.10;;;9.50;;
50301;SDS011;36550;50.472;19.744;2024-01-30T11:37:09;24.60;;;9.60;;
50301;SDS011;36550;50.472;19.744;2024-01-30T11:39:56;19.70;;;9.60;;
50301;SDS011;36550;50.472;19.744;2024-01-30T11:42:40;18.80;;;9.10;;
50301;SDS011;36550;50.472;19.744;2024-01-30T11:45:26;25.10;;;9.90;;
50301;SDS011;36550;50.472;19.744;2024-01-30T11:48:11;24.90;;;10.20;;
50301;SDS011;36550;50.472;19.744;2024-01-30T11:50:55;22.80;;;10.30;;
50301;SDS011;36550;50.472;19.744;2024-01-30T11:53:40;18.50;;;9.20;;
50301;SDS011;36550;50.472;19.744;2024-01-30T11:56:25;23.90;;;9.40;;
50301;SDS011;36550;50.472;19.744;2024-01-30T11:59:11;19.50;;;9.50;;
50301;SDS011;36550;50.472;19.744;2024-01-30T12:01:55;21.10;;;8.80;;
50301;SDS011;36550;50.472;19.744;2024-01-30T12:04:39;16.90;;;8.60;;
50301;SDS011;36550;50.472;19.744;2024-01-30T12:07:23;19.60;;;8.60;;
50301;SDS011;36550;50.472;19.744;2024-01-30T12:10:08;19.20;;;9.30;;
50301;SDS011;36550;50.472;19.744;2024-01-30T12:12:53;17.70;;;8.70;;
50301;SDS011;36550;50.472;19.744;2024-01-30T12:15:38;21.40;;;9.20;;
50301;SDS011;36550;50.472;19.744;2024-01-30T12:18:23;18.90;;;8.50;;
50301;SDS011;36550;50.472;19.744;2024-01-30T12:21:07;18.50;;;8.90;;
50301;SDS011;36550;50.472;19.744;2024-01-30T12:23:52;19.90;;;9.00;;
50301;SDS011;36550;50.472;19.744;2024-01-30T12:26:36;20.00;;;9.00;;
50301;SDS011;36550;50.472;19.744;2024-01-30T12:29:20;23.30;;;9.10;;
50301;SDS011;36550;50.472;19.744;2024-01-30T12:32:05;19.30;;;8.20;;
50301;SDS011;36550;50.472;19.744;2024-01-30T12:34:49;19.10;;;8.70;;
50301;SDS011;36550;50.472;19.744;2024-01-30T12:37:33;21.10;;;8.90;;
50301;SDS011;36550;50.472;19.744;2024-01-30T12:40:18;21.90;;;9.50;;
50301;SDS011;36550;50.472;19.744;2024-01-30T12:43:03;22.50;;;8.30;;
50301;SDS011;36550;50.472;19.744;2024-01-30T12:45:47;19.80;;;8.20;;
50301;SDS011;36550;50.472;19.744;2024-01-30T12:48:31;16.70;;;8.50;;
50301;SDS011;36550;50.472;19.744;2024-01-30T12:51:16;18.20;;;8.70;;
50301;SDS011;36550;50.472;19.744;2024-01-30T12:54:03;19.30;;;7.90;;
50301;SDS011;36550;50.472;19.744;2024-01-30T12:56:49;18.80;;;7.50;;
50301;SDS011;36550;50.472;19.744;2024-01-30T12:59:33;18.90;;;8.80;;
50301;SDS011;36550;50.472;19.744;2024-01-30T13:02:18;21.20;;;8.80;;
50301;SDS011;36550;50.472;19.744;2024-01-30T13:05:03;21.30;;;8.60;;
50301;SDS011;36550;50.472;19.744;2024-01-30T13:07:48;18.50;;;8.80;;
50301;SDS011;36550;50.472;19.744;2024-01-30T13:10:32;20.80;;;7.80;;
50301;SDS011;36550;50.472;19.744;2024-01-30T13:13:16;21.20;;;8.60;;
50301;SDS011;36550;50.472;19.744;2024-01-30T13:16:00;18.50;;;8.80;;
50301;SDS011;36550;50.472;19.744;2024-01-30T13:18:44;16.60;;;9.00;;
50301;SDS011;36550;50.472;19.744;2024-01-30T13:21:28;18.10;;;8.60;;
50301;SDS011;36550;50.472;19.744;2024-01-30T13:24:13;17.00;;;7.40;;
50301;SDS011;36550;50.472;19.744;2024-01-30T13:26:57;20.80;;;9.10;;
50301;SDS011;36550;50.472;19.744;2024-01-30T13:29:41;17.50;;;8.00;;
50301;SDS011;36550;50.472;19.744;2024-01-30T13:32:26;18.70;;;8.50;;
50301;SDS011;36550;50.472;19.744;2024-01-30T13:35:10;18.30;;;9.30;;
50301;SDS011;36550;50.472;19.744;2024-01-30T13:37:54;22.60;;;8.20;;
50301;SDS011;36550;50.472;19.744;2024-01-30T13:40:39;19.40;;;8.80;;
50301;SDS011;36550;50.472;19.744;2024-01-30T13:43:23;17.70;;;8.60;;
50301;SDS011;36550;50.472;19.744;2024-01-30T13:46:08;19.80;;;9.50;;
50301;SDS011;36550;50.472;19.744;2024-01-30T13:48:52;17.50;;;8.70;;
50301;SDS011;36550;50.472;19.744;2024-01-30T13:51:35;18.30;;;8.80;;
50301;SDS011;36550;50.472;19.744;2024-01-30T13:54:19;16.60;;;8.60;;
50301;SDS011;36550;50.472;19.744;2024-01-30T13:57:04;18.40;;;8.20;;
50301;SDS011;36550;50.472;19.744;2024-01-30T13:59:49;23.50;;;9.50;;
50301;SDS011;36550;50.472;19.744;2024-01-30T14:02:33;20.00;;;9.30;;
50301;SDS011;36550;50.472;19.744;2024-01-30T14:05:17;22.00;;;8.90;;
50301;SDS011;36550;50.472;19.744;2024-01-30T14:08:03;21.30;;;9.10;;
50301;SDS011;36550;50.472;19.744;2024-01-30T14:10:48;21.10;;;9.40;;
50301;SDS011;36550;50.472;19.744;2024-01-30T14:13:32;16.10;;;8.30;;
50301;SDS011;36550;50.472;19.744;2024-01-30T14:16:16;17.90;;;8.30;;
50301;SDS011;36550;50.472;19.744;2024-01-30T14:19:00;17.50;;;8.00;;
50301;SDS011;36550;50.472;19.744;2024-01-30T14:21:44;20.10;;;8.90;;
50301;SDS011;36550;50.472;19.744;2024-01-30T14:24:28;19.60;;;8.80;;
50301;SDS011;36550;50.472;19.744;2024-01-30T14:27:12;23.40;;;9.30;;
50301;SDS011;36550;50.472;19.744;2024-01-30T14:29:57;22.80;;;9.50;;
50301;SDS011;36550;50.472;19.744;2024-01-30T14:32:41;19.30;;;9.10;;
50301;SDS011;36550;50.472;19.744;2024-01-30T14:35:29;22.60;;;9.40;;
50301;SDS011;36550;50.472;19.744;2024-01-30T14:38:13;20.60;;;9.20;;
50301;SDS011;36550;50.472;19.744;2024-01-30T14:40:57;20.20;;;9.50;;
50301;SDS011;36550;50.472;19.744;2024-01-30T14:43:41;18.60;;;9.70;;
50301;SDS011;36550;50.472;19.744;2024-01-30T14:46:25;24.70;;;10.50;;
50301;SDS011;36550;50.472;19.744;2024-01-30T14:49:10;24.60;;;10.20;;
50301;SDS011;36550;50.472;19.744;2024-01-30T14:51:55;25.80;;;11.10;;
50301;SDS011;36550;50.472;19.744;2024-01-30T14:54:39;23.70;;;10.90;;
50301;SDS011;36550;50.472;19.744;2024-01-30T14:57:27;31.40;;;11.20;;
50301;SDS011;36550;50.472;19.744;2024-01-30T15:00:13;26.60;;;11.00;;
50301;SDS011;36550;50.472;19.744;2024-01-30T15:02:57;27.60;;;11.50;;
50301;SDS011;36550;50.472;19.744;2024-01-30T15:05:42;29.70;;;11.70;;
50301;SDS011;36550;50.472;19.744;2024-01-30T15:08:26;26.10;;;11.10;;
50301;SDS011;36550;50.472;19.744;2024-01-30T15:11:11;27.90;;;11.40;;
50301;SDS011;36550;50.472;19.744;2024-01-30T15:13:55;26.40;;;11.00;;
50301;SDS011;36550;50.472;19.744;2024-01-30T15:16:39;29.30;;;12.00;;
50301;SDS011;36550;50.472;19.744;2024-01-30T15:19:23;25.50;;;11.90;;
50301;SDS011;36550;50.472;19.744;2024-01-30T15:22:07;28.00;;;11.60;;
50301;SDS011;36550;50.472;19.744;2024-01-30T15:24:52;25.00;;;11.30;;
50301;SDS011;36550;50.472;19.744;2024-01-30T15:27:36;25.30;;;10.50;;
50301;SDS011;36550;50.472;19.744;2024-01-30T15:30:21;29.40;;;12.00;;
50301;SDS011;36550;50.472;19.744;2024-01-30T15:33:05;26.80;;;10.40;;
50301;SDS011;36550;50.472;19.744;2024-01-30T15:35:49;23.50;;;11.00;;
50301;SDS011;36550;50.472;19.744;2024-01-30T15:38:41;23.00;;;9.60;;
50301;SDS011;36550;50.472;19.744;2024-01-30T15:41:26;22.70;;;10.00;;
50301;SDS011;36550;50.472;19.744;2024-01-30T15:44:10;19.30;;;9.40;;
50301;SDS011;36550;50.472;19.744;2024-01-30T15:46:58;22.40;;;9.90;;
50301;SDS011;36550;50.472;19.744;2024-01-30T15:49:51;25.70;;;10.50;;
50301;SDS011;36550;50.472;19.744;2024-01-30T15:52:35;28.80;;;11.30;;
50301;SDS011;36550;50.472;19.744;2024-01-30T15:55:21;25.90;;;10.90;;